createdAt,value
2018-07-23T00:01:47.189Z,22.73
2018-07-23T00:04:15.659Z,25.07
2018-07-23T00:06:44.103Z,21.47
2018-07-23T00:09:12.578Z,17.97
2018-07-23T00:11:40.926Z,21.77
2018-07-23T00:14:09.479Z,15.93
2018-07-23T00:16:37.906Z,17.80
2018-07-23T00:19:06.391Z,20.07
2018-07-23T00:21:34.943Z,22.37
2018-07-23T00:24:03.374Z,27.10
2018-07-23T00:26:31.835Z,22.53
2018-07-23T00:29:00.245Z,24.70
2018-07-23T00:31:28.622Z,20.60
2018-07-23T00:33:57.181Z,24.40
2018-07-23T00:36:25.783Z,26.03
2018-07-23T00:38:54.484Z,24.23
2018-07-23T00:41:23.286Z,20.97
2018-07-23T00:43:52.182Z,20.80
2018-07-23T00:46:20.870Z,21.13
2018-07-23T00:48:49.581Z,20.23
2018-07-23T00:51:18.241Z,21.40
2018-07-23T00:53:46.663Z,19.53
2018-07-23T00:56:15.094Z,25.73
2018-07-23T00:58:43.484Z,27.53
2018-07-23T01:01:11.843Z,27.53
2018-07-23T01:03:40.365Z,27.73
2018-07-23T01:06:08.839Z,18.63
2018-07-23T01:08:37.298Z,18.20
2018-07-23T01:11:06.317Z,20.87
2018-07-23T01:13:34.740Z,23.43
2018-07-23T01:16:03.165Z,23.47
2018-07-23T01:18:31.663Z,23.70
2018-07-23T01:20:59.786Z,23.57
2018-07-23T01:23:28.236Z,21.07
2018-07-23T01:25:56.783Z,25.83
2018-07-23T01:28:25.319Z,26.47
2018-07-23T01:30:54.044Z,22.73
2018-07-23T01:33:22.803Z,26.97
2018-07-23T01:35:51.362Z,18.37
2018-07-23T01:38:20.192Z,21.87
2018-07-23T01:40:48.836Z,22.40
2018-07-23T01:43:17.165Z,22.87
2018-07-23T01:45:45.567Z,21.17
2018-07-23T01:48:13.948Z,24.17
2018-07-23T01:50:42.118Z,24.80
2018-07-23T01:53:10.750Z,20.40
2018-07-23T01:55:39.335Z,23.77
2018-07-23T01:58:07.837Z,26.83
2018-07-23T02:00:36.340Z,20.57
2018-07-23T02:03:04.883Z,21.87
2018-07-23T02:05:33.369Z,23.90
2018-07-23T02:08:01.793Z,30.57
2018-07-23T02:10:30.314Z,30.23
2018-07-23T02:12:58.691Z,28.60
2018-07-23T02:15:27.236Z,36.70
2018-07-23T02:17:55.780Z,36.40
2018-07-23T02:20:24.357Z,41.93
2018-07-23T02:22:53.057Z,43.43
2018-07-23T02:25:21.826Z,34.33
2018-07-23T02:27:50.205Z,30.57
2018-07-23T02:30:19.327Z,38.70
2018-07-23T02:32:47.781Z,35.80
2018-07-23T02:35:16.184Z,37.13
2018-07-23T02:37:44.565Z,40.33
2018-07-23T02:40:13.032Z,40.57
2018-07-23T02:42:41.639Z,34.40
2018-07-23T02:45:10.247Z,32.97
2018-07-23T02:47:38.896Z,32.97
2018-07-23T02:50:07.360Z,44.43
2018-07-23T02:52:35.855Z,41.47
2018-07-23T02:55:04.260Z,44.10
2018-07-23T02:57:32.772Z,48.70
2018-07-23T03:00:01.259Z,39.83
2018-07-23T03:02:29.355Z,40.50
2018-07-23T03:04:57.756Z,44.70
2018-07-23T03:07:26.262Z,44.00
2018-07-23T03:09:54.701Z,42.13
2018-07-23T03:12:23.481Z,42.67
2018-07-23T03:14:52.488Z,40.93
2018-07-23T03:17:21.298Z,40.40
2018-07-23T03:19:50.054Z,52.17
2018-07-23T03:22:18.634Z,48.97
2018-07-23T03:24:47.130Z,46.03
2018-07-23T03:27:15.592Z,44.27
2018-07-23T03:29:44.033Z,47.37
2018-07-23T03:32:12.453Z,65.47
2018-07-23T03:34:40.971Z,55.17
2018-07-23T03:37:09.571Z,56.03
2018-07-23T03:39:38.128Z,50.30
2018-07-23T03:42:06.523Z,53.80
2018-07-23T03:44:34.964Z,58.33
2018-07-23T03:47:03.408Z,50.07
2018-07-23T03:49:31.586Z,43.60
2018-07-23T03:51:59.943Z,46.37
2018-07-23T03:54:28.296Z,38.37
2018-07-23T03:56:56.768Z,41.63
2018-07-23T03:59:25.237Z,35.43
2018-07-23T04:01:53.925Z,35.17
2018-07-23T04:04:22.435Z,42.10
2018-07-23T04:06:51.279Z,32.17
2018-07-23T04:09:20.095Z,32.57
2018-07-23T04:11:48.620Z,46.23
2018-07-23T04:14:17.050Z,36.30
2018-07-23T04:16:45.527Z,35.80
2018-07-23T04:19:13.894Z,38.00
2018-07-23T04:21:50.532Z,35.00
2018-07-23T04:24:20.105Z,34.27
2018-07-23T04:26:48.795Z,32.60
2018-07-23T04:29:17.248Z,38.47
2018-07-23T04:31:45.636Z,35.03
2018-07-23T04:34:14.048Z,34.07
2018-07-23T04:36:42.501Z,33.07
2018-07-23T04:39:11.019Z,28.33
2018-07-23T04:41:39.604Z,29.07
2018-07-23T04:44:08.044Z,36.37
2018-07-23T04:46:36.460Z,28.77
2018-07-23T04:49:11.186Z,29.57
2018-07-23T04:51:43.207Z,29.90
2018-07-23T04:54:11.657Z,29.33
2018-07-23T04:56:40.213Z,28.83
2018-07-23T04:59:08.567Z,29.70
2018-07-23T05:01:36.980Z,28.50
2018-07-23T05:04:05.707Z,25.13
2018-07-23T05:06:34.212Z,26.60
2018-07-23T05:09:09.058Z,32.37
2018-07-23T05:11:37.556Z,29.73
2018-07-23T05:14:06.472Z,27.17
2018-07-23T05:16:34.918Z,27.27
2018-07-23T05:19:03.336Z,26.20
2018-07-23T05:21:31.756Z,36.03
2018-07-23T05:24:00.228Z,26.23
2018-07-23T05:26:39.030Z,27.37
2018-07-23T05:29:21.175Z,30.43
2018-07-23T05:31:50.178Z,27.57
2018-07-23T05:34:19.470Z,24.77
2018-07-23T05:36:48.201Z,25.67
2018-07-23T05:39:21.084Z,27.30
2018-07-23T05:41:54.061Z,33.23
2018-07-23T05:44:22.995Z,25.27
2018-07-23T05:46:51.745Z,25.77
2018-07-23T05:49:20.792Z,25.57
2018-07-23T05:51:49.974Z,21.33
2018-07-23T05:54:18.475Z,26.03
2018-07-23T05:56:46.907Z,23.60
2018-07-23T05:59:20.939Z,25.70
2018-07-23T06:01:49.982Z,21.93
2018-07-23T06:04:22.637Z,23.07
2018-07-23T06:06:51.541Z,24.93
2018-07-23T06:09:20.654Z,23.60
2018-07-23T06:11:50.062Z,22.73
2018-07-23T06:14:18.609Z,20.67
2018-07-23T06:16:47.038Z,21.73
2018-07-23T06:19:15.448Z,20.70
2018-07-23T06:21:43.828Z,21.77
2018-07-23T06:24:12.324Z,21.23
2018-07-23T06:26:41.020Z,17.67
2018-07-23T06:29:09.777Z,17.97
2018-07-23T06:31:38.972Z,22.93
2018-07-23T06:34:07.716Z,18.23
2018-07-23T06:36:35.957Z,17.57
2018-07-23T06:39:07.232Z,20.07
2018-07-23T06:41:35.762Z,19.47
2018-07-23T06:44:03.987Z,18.57
2018-07-23T06:46:32.267Z,16.57
2018-07-23T06:49:00.512Z,26.97
2018-07-23T06:51:28.739Z,16.30
2018-07-23T06:53:56.985Z,17.13
2018-07-23T06:56:25.205Z,18.03
2018-07-23T06:58:53.684Z,17.03
2018-07-23T07:01:22.022Z,17.80
2018-07-23T07:03:50.468Z,21.73
2018-07-23T07:06:20.600Z,14.47
2018-07-23T07:08:49.110Z,15.20
2018-07-23T07:11:17.607Z,14.20
2018-07-23T07:13:46.064Z,18.37
2018-07-23T07:16:14.471Z,18.13
2018-07-23T07:18:42.935Z,19.13
2018-07-23T07:21:11.332Z,17.53
2018-07-23T07:23:39.776Z,15.37
2018-07-23T07:26:08.137Z,15.03
2018-07-23T07:28:36.520Z,15.47
2018-07-23T07:31:05.004Z,15.33
2018-07-23T07:33:33.420Z,16.07
2018-07-23T07:36:01.740Z,15.83
2018-07-23T07:38:30.168Z,14.70
2018-07-23T07:40:58.560Z,14.20
2018-07-23T07:43:26.955Z,14.57
2018-07-23T07:45:55.546Z,13.93
2018-07-23T07:48:24.151Z,15.10
2018-07-23T07:50:52.771Z,16.10
2018-07-23T07:53:21.372Z,14.17
2018-07-23T07:55:50.113Z,12.77
2018-07-23T07:58:18.644Z,12.27
2018-07-23T08:00:46.994Z,11.83
2018-07-23T08:03:15.491Z,11.10
2018-07-23T08:05:43.896Z,11.70
2018-07-23T08:08:12.462Z,12.17
2018-07-23T08:10:40.897Z,12.83
2018-07-23T08:13:09.468Z,11.37
2018-07-23T08:15:38.028Z,12.20
2018-07-23T08:18:06.470Z,11.37
2018-07-23T08:20:35.024Z,11.13
2018-07-23T08:23:03.428Z,10.03
2018-07-23T08:25:31.802Z,10.50
2018-07-23T08:28:00.195Z,9.77
2018-07-23T08:30:28.560Z,14.50
2018-07-23T08:32:56.955Z,10.90
2018-07-23T08:35:25.452Z,10.10
2018-07-23T08:37:54.032Z,10.63
2018-07-23T08:40:22.540Z,11.57
2018-07-23T08:42:51.099Z,11.77
2018-07-23T08:45:20.268Z,11.03
2018-07-23T08:47:49.714Z,11.10
2018-07-23T08:50:18.305Z,11.80
2018-07-23T08:52:46.736Z,14.03
2018-07-23T08:55:15.115Z,11.60
2018-07-23T08:57:43.542Z,11.97
2018-07-23T09:00:12.147Z,11.13
2018-07-23T09:02:40.600Z,12.03
2018-07-23T09:05:09.092Z,12.23
2018-07-23T09:07:37.212Z,10.27
2018-07-23T09:10:05.839Z,13.53
2018-07-23T09:12:34.345Z,10.33
2018-07-23T09:15:02.763Z,10.83
2018-07-23T09:17:31.143Z,9.83
2018-07-23T09:19:59.601Z,10.27
2018-07-23T09:22:27.973Z,11.30
2018-07-23T09:24:56.156Z,11.10
2018-07-23T09:27:24.567Z,12.03
2018-07-23T09:29:53.156Z,11.53
2018-07-23T09:32:21.739Z,12.43
2018-07-23T09:34:50.688Z,12.40
2018-07-23T09:37:19.345Z,13.53
2018-07-23T09:39:47.760Z,12.30
2018-07-23T09:42:16.167Z,12.40
2018-07-23T09:44:44.590Z,12.83
2018-07-23T09:47:12.986Z,14.97
2018-07-23T09:49:41.552Z,11.90
2018-07-23T09:52:10.109Z,11.87
2018-07-23T09:54:38.670Z,11.67
2018-07-23T09:57:07.057Z,12.07
2018-07-23T09:59:35.427Z,12.77
2018-07-23T10:02:03.843Z,11.30
2018-07-23T10:04:32.297Z,12.57
2018-07-23T10:07:00.738Z,14.50
2018-07-23T10:09:29.147Z,11.90
2018-07-23T10:11:57.273Z,12.03
2018-07-23T10:14:25.841Z,11.40
2018-07-23T10:16:54.377Z,12.83
2018-07-23T10:19:23.155Z,10.83
2018-07-23T10:21:51.911Z,14.47
2018-07-23T10:24:21.018Z,12.03
2018-07-23T10:26:49.615Z,12.27
2018-07-23T10:29:18.509Z,10.57
2018-07-23T10:31:47.080Z,13.40
2018-07-23T10:34:15.720Z,11.80
2018-07-23T10:36:44.292Z,12.43
2018-07-23T10:39:12.764Z,13.23
2018-07-23T10:41:41.300Z,11.23
2018-07-23T10:44:09.887Z,11.13
2018-07-23T10:46:38.343Z,10.47
2018-07-23T10:49:06.803Z,10.50
2018-07-23T10:51:35.252Z,8.73
2018-07-23T10:54:03.736Z,8.73
2018-07-23T10:56:38.595Z,10.53
2018-07-23T10:59:06.987Z,12.20
2018-07-23T11:01:35.328Z,9.03
2018-07-23T11:04:03.724Z,11.80
2018-07-23T11:06:32.151Z,9.77
2018-07-23T11:09:00.579Z,8.57
2018-07-23T11:11:29.056Z,8.57
2018-07-23T11:13:57.645Z,8.30
2018-07-23T11:16:26.191Z,8.40
2018-07-23T11:18:54.788Z,11.03
2018-07-23T11:21:23.492Z,8.87
2018-07-23T11:23:52.206Z,9.33
2018-07-23T11:26:20.995Z,13.27
2018-07-23T11:28:49.586Z,7.13
2018-07-23T11:31:18.044Z,7.93
2018-07-23T11:33:46.499Z,7.87
2018-07-23T11:36:15.036Z,8.93
2018-07-23T11:38:43.426Z,9.10
2018-07-23T11:41:11.998Z,8.53
2018-07-23T11:43:40.940Z,9.13
2018-07-23T11:46:24.418Z,11.33
2018-07-23T11:48:38.218Z,10.40
2018-07-23T11:51:06.927Z,10.67
2018-07-23T11:53:35.694Z,9.33
2018-07-23T11:56:04.187Z,11.60
2018-07-23T11:58:32.596Z,12.53
2018-07-23T12:01:01.540Z,14.17
2018-07-23T12:03:30.151Z,10.97
2018-07-23T12:05:59.083Z,14.23
2018-07-23T12:08:27.737Z,13.30
2018-07-23T12:10:56.404Z,15.00
2018-07-23T12:13:24.964Z,15.17
2018-07-23T12:15:53.511Z,14.43
2018-07-23T12:18:22.101Z,16.10
2018-07-23T12:20:51.243Z,14.83
2018-07-23T12:23:19.795Z,12.83
2018-07-23T12:25:48.080Z,12.10
2018-07-23T12:28:16.800Z,14.50
2018-07-23T12:30:45.312Z,8.97
2018-07-23T12:33:14.091Z,8.87
2018-07-23T12:35:42.692Z,9.77
2018-07-23T12:38:11.391Z,9.27
2018-07-23T12:40:39.814Z,11.73
2018-07-23T12:43:08.430Z,9.17
2018-07-23T12:45:37.261Z,9.77
2018-07-23T12:48:05.740Z,9.87
2018-07-23T12:50:34.477Z,8.57
2018-07-23T12:53:03.020Z,10.40
2018-07-23T12:55:31.655Z,8.80
2018-07-23T12:58:00.151Z,10.23
2018-07-23T13:00:28.648Z,10.70
2018-07-23T13:02:57.151Z,12.87
2018-07-23T13:05:26.548Z,10.67
2018-07-23T13:07:55.503Z,11.20
2018-07-23T13:10:24.127Z,15.00
2018-07-23T13:12:53.368Z,12.43
2018-07-23T13:15:23.782Z,12.93
2018-07-23T13:17:53.596Z,14.10
2018-07-23T13:20:22.753Z,12.70
2018-07-23T13:22:51.467Z,11.97
2018-07-23T13:25:20.283Z,12.37
2018-07-23T13:27:48.761Z,14.30
2018-07-23T13:30:17.133Z,16.43
2018-07-23T13:32:46.248Z,15.77
2018-07-23T13:35:14.819Z,13.47
2018-07-23T13:37:44.008Z,14.87
2018-07-23T13:40:12.585Z,15.67
2018-07-23T13:42:41.232Z,13.50
2018-07-23T13:45:09.758Z,12.27
2018-07-23T13:47:38.307Z,12.77
2018-07-23T13:50:06.724Z,10.27
2018-07-23T13:52:35.207Z,13.97
2018-07-23T13:55:03.573Z,12.87
2018-07-23T13:57:31.910Z,9.67
2018-07-23T14:00:00.324Z,9.37
2018-07-23T14:02:28.894Z,10.80
2018-07-23T14:04:57.509Z,8.40
2018-07-23T14:07:26.061Z,8.53
2018-07-23T14:09:54.897Z,9.00
2018-07-23T14:12:23.568Z,9.43
2018-07-23T14:14:52.312Z,9.47
2018-07-23T14:17:20.681Z,10.70
2018-07-23T14:19:49.179Z,11.97
2018-07-23T14:22:17.612Z,9.27
2018-07-23T14:24:45.998Z,10.83
2018-07-23T14:27:14.444Z,10.23
2018-07-23T14:29:42.865Z,11.77
2018-07-23T14:32:11.304Z,11.63
2018-07-23T14:34:39.705Z,9.67
2018-07-23T14:37:08.169Z,9.40
2018-07-23T14:39:36.716Z,10.13
2018-07-23T14:42:05.240Z,9.00
2018-07-23T14:44:33.708Z,8.63
2018-07-23T14:47:02.152Z,10.70
2018-07-23T14:49:30.609Z,7.43
2018-07-23T14:51:59.215Z,10.33
2018-07-23T14:54:27.740Z,10.57
2018-07-23T14:56:56.031Z,11.63
2018-07-23T14:59:24.503Z,7.10
2018-07-23T15:01:53.243Z,8.20
2018-07-23T15:04:21.848Z,9.43
2018-07-23T15:06:50.879Z,7.27
2018-07-23T15:09:19.469Z,8.17
2018-07-23T15:11:48.609Z,8.07
2018-07-23T15:14:17.023Z,8.47
2018-07-23T15:16:45.360Z,9.97
2018-07-23T15:19:13.747Z,10.00
2018-07-23T15:21:42.230Z,8.83
2018-07-23T15:24:10.683Z,8.07
2018-07-23T15:26:39.240Z,7.30
2018-07-23T15:29:07.865Z,7.43
2018-07-23T15:31:36.401Z,7.97
2018-07-23T15:34:04.831Z,7.67
2018-07-23T15:36:33.272Z,8.77
2018-07-23T15:39:01.660Z,7.33
2018-07-23T15:41:30.311Z,8.07
2018-07-23T15:43:58.860Z,7.40
2018-07-23T15:46:27.237Z,8.53
2018-07-23T15:48:56.356Z,7.80
2018-07-23T15:51:24.659Z,9.00
2018-07-23T15:53:53.043Z,10.63
2018-07-23T15:56:21.379Z,9.90
2018-07-23T15:58:50.071Z,7.53
2018-07-23T16:01:19.285Z,8.23
2018-07-23T16:03:47.532Z,7.80
2018-07-23T16:06:15.943Z,9.23
2018-07-23T16:08:44.290Z,6.80
2018-07-23T16:11:12.531Z,6.57
2018-07-23T16:13:40.925Z,5.53
2018-07-23T16:16:09.153Z,6.03
2018-07-23T16:18:37.354Z,8.63
2018-07-23T16:21:05.594Z,8.20
2018-07-23T16:23:33.882Z,7.33
2018-07-23T16:26:02.102Z,9.20
2018-07-23T16:28:30.308Z,10.47
2018-07-23T16:30:58.554Z,12.67
2018-07-23T16:33:26.944Z,9.30
2018-07-23T16:35:55.510Z,11.73
2018-07-23T16:38:24.174Z,11.17
2018-07-23T16:40:52.677Z,10.67
2018-07-23T16:43:21.153Z,8.83
2018-07-23T16:45:49.469Z,8.40
2018-07-23T16:48:17.915Z,10.37
2018-07-23T16:50:46.137Z,11.20
2018-07-23T16:53:14.351Z,8.40
2018-07-23T16:55:42.600Z,10.03
2018-07-23T16:58:10.767Z,9.13
2018-07-23T17:00:39.149Z,9.47
2018-07-23T17:03:07.393Z,8.83
2018-07-23T17:05:35.612Z,9.73
2018-07-23T17:08:03.871Z,11.87
2018-07-23T17:10:32.365Z,9.13
2018-07-23T17:13:00.611Z,8.43
2018-07-23T17:15:28.833Z,7.90
2018-07-23T17:17:57.172Z,7.80
2018-07-23T17:20:25.411Z,7.83
2018-07-23T17:22:53.831Z,7.23
2018-07-23T17:25:22.527Z,7.70
2018-07-23T17:27:51.071Z,10.03
2018-07-23T17:30:19.467Z,8.20
2018-07-23T17:32:47.693Z,8.57
2018-07-23T17:35:15.959Z,7.37
2018-07-23T17:37:44.165Z,7.27
2018-07-23T17:40:12.411Z,7.00
2018-07-23T17:42:40.775Z,7.63
2018-07-23T17:45:09.177Z,7.00
2018-07-23T17:47:37.380Z,6.77
2018-07-23T17:50:05.690Z,7.03
2018-07-23T17:52:33.898Z,6.70
2018-07-23T17:55:05.704Z,6.83
2018-07-23T17:57:33.909Z,6.57
2018-07-23T18:00:02.352Z,7.07
2018-07-23T18:02:30.690Z,7.47
2018-07-23T18:05:01.423Z,7.93
2018-07-23T18:10:18.702Z,7.10
2018-07-23T18:12:50.024Z,7.07
2018-07-23T18:15:20.051Z,8.33
2018-07-23T18:17:49.463Z,5.97
2018-07-23T18:20:19.104Z,7.57
2018-07-23T18:22:48.873Z,6.10
2018-07-23T18:25:17.261Z,5.70
2018-07-23T18:27:45.464Z,6.67
2018-07-23T18:30:13.686Z,6.33
2018-07-23T18:32:41.902Z,6.37
2018-07-23T18:35:10.139Z,6.43
2018-07-23T18:37:38.419Z,6.17
2018-07-23T18:40:06.658Z,6.17
2018-07-23T18:42:34.937Z,7.07
2018-07-23T18:45:03.121Z,8.87
2018-07-23T18:47:31.325Z,10.50
2018-07-23T18:50:00.443Z,10.13
2018-07-23T18:52:29.378Z,10.03
2018-07-23T18:54:59.902Z,11.07
2018-07-23T18:57:28.158Z,11.83
2018-07-23T18:59:56.514Z,8.50
2018-07-23T19:02:25.003Z,14.17
2018-07-23T19:04:54.034Z,7.93
2018-07-23T19:07:22.521Z,8.10
2018-07-23T19:09:51.030Z,7.70
2018-07-23T19:12:19.623Z,7.67
2018-07-23T19:14:47.881Z,8.80
2018-07-23T19:17:16.122Z,7.70
2018-07-23T19:19:44.350Z,8.20
2018-07-23T19:22:12.709Z,7.83
2018-07-23T19:24:40.989Z,7.87
2018-07-23T19:27:09.224Z,8.57
2018-07-23T19:29:37.447Z,9.97
2018-07-23T19:32:05.739Z,8.13
2018-07-23T19:34:34.002Z,9.33
2018-07-23T19:37:02.246Z,8.90
2018-07-23T19:39:30.507Z,11.90
2018-07-23T19:41:58.792Z,7.67
2018-07-23T19:44:27.031Z,8.57
2018-07-23T19:46:55.342Z,8.27
2018-07-23T19:49:23.767Z,9.27
2018-07-23T19:51:53.599Z,11.73
2018-07-23T19:54:22.406Z,9.77
2018-07-23T19:56:51.519Z,8.97
2018-07-23T19:59:20.346Z,9.23
2018-07-23T20:01:48.692Z,10.53
2018-07-23T20:04:16.955Z,12.40
2018-07-23T20:06:44.955Z,10.73
2018-07-23T20:09:14.736Z,14.07
2018-07-23T20:11:42.918Z,10.80
2018-07-23T20:14:11.319Z,11.30
2018-07-23T20:16:39.580Z,11.27
2018-07-23T20:19:07.972Z,12.73
2018-07-23T20:21:36.215Z,12.00
2018-07-23T20:24:04.462Z,12.13
2018-07-23T20:26:32.694Z,13.10
2018-07-23T20:29:01.350Z,14.80
2018-07-23T20:31:29.874Z,16.43
2018-07-23T20:33:59.791Z,12.17
2018-07-23T20:36:28.398Z,13.67
2018-07-23T20:38:57.139Z,14.23
2018-07-23T20:41:27.787Z,17.70
2018-07-23T20:43:57.589Z,13.37
2018-07-23T20:46:26.363Z,12.27
2018-07-23T20:48:54.941Z,15.63
2018-07-23T20:51:23.606Z,12.47
2018-07-23T20:53:53.142Z,12.33
2018-07-23T20:56:22.299Z,14.00
2018-07-23T20:58:51.457Z,17.10
2018-07-23T21:01:21.107Z,13.33
2018-07-23T21:03:50.869Z,16.07
2018-07-23T21:06:20.349Z,13.80
2018-07-23T21:08:49.171Z,25.20
2018-07-23T21:11:17.668Z,14.40
2018-07-23T21:13:46.150Z,15.30
2018-07-23T21:16:14.791Z,11.27
2018-07-23T21:18:43.130Z,11.43
2018-07-23T21:21:12.244Z,9.90
2018-07-23T21:23:40.603Z,10.83
2018-07-23T21:26:08.974Z,13.43
2018-07-23T21:28:37.206Z,15.03
2018-07-23T21:31:05.419Z,10.07
2018-07-23T21:33:33.678Z,9.63
2018-07-23T21:36:02.034Z,10.60
2018-07-23T21:38:30.258Z,10.90
2018-07-23T21:40:58.482Z,12.00
2018-07-23T21:43:26.727Z,11.90
2018-07-23T21:45:55.205Z,9.43
2018-07-23T21:48:23.826Z,9.33
2018-07-23T21:50:52.430Z,12.63
2018-07-23T21:53:21.310Z,10.60
2018-07-23T21:55:49.737Z,9.57
2018-07-23T21:58:18.090Z,14.77
2018-07-23T22:00:46.400Z,9.90
2018-07-23T22:03:14.571Z,13.73
2018-07-23T22:05:42.779Z,8.57
2018-07-23T22:08:11.199Z,9.43
2018-07-23T22:10:39.574Z,9.60
2018-07-23T22:13:07.872Z,10.87
2018-07-23T22:15:36.072Z,9.67
2018-07-23T22:18:04.291Z,11.80
2018-07-23T22:20:32.503Z,10.10
2018-07-23T22:23:00.739Z,12.70
2018-07-23T22:25:28.946Z,12.93
2018-07-23T22:27:57.206Z,10.03
2018-07-23T22:30:25.574Z,10.00
2018-07-23T22:32:54.067Z,13.03
2018-07-23T22:35:22.736Z,13.43
2018-07-23T22:37:51.903Z,10.97
2018-07-23T22:40:20.307Z,10.30
2018-07-23T22:42:48.593Z,12.27
2018-07-23T22:45:16.839Z,12.47
2018-07-23T22:47:45.047Z,10.30
2018-07-23T22:50:13.271Z,9.80
2018-07-23T22:52:41.517Z,10.83
2018-07-23T22:55:10.026Z,10.97
2018-07-23T22:57:38.349Z,12.97
2018-07-23T23:00:06.568Z,13.67
2018-07-23T23:02:34.766Z,15.63
2018-07-23T23:05:02.995Z,10.93
2018-07-23T23:07:31.203Z,10.23
2018-07-23T23:09:59.413Z,11.17
2018-07-23T23:12:27.634Z,13.70
2018-07-23T23:14:56.061Z,10.83
2018-07-23T23:17:24.631Z,10.57
2018-07-23T23:19:53.394Z,13.10
2018-07-23T23:22:22.182Z,12.80
2018-07-23T23:24:50.759Z,11.33
2018-07-23T23:27:19.191Z,11.10
2018-07-23T23:29:47.419Z,10.90
2018-07-23T23:32:15.622Z,11.77
2018-07-23T23:34:43.831Z,9.80
2018-07-23T23:37:12.122Z,11.17
2018-07-23T23:39:40.502Z,9.97
2018-07-23T23:42:08.867Z,12.80
2018-07-23T23:44:37.086Z,14.83
2018-07-23T23:47:05.331Z,11.37
2018-07-23T23:49:33.555Z,11.53
2018-07-23T23:52:01.779Z,10.57
2018-07-23T23:54:29.991Z,14.20
2018-07-23T23:56:58.297Z,11.30
2018-07-23T23:59:26.649Z,11.87
